createdAt,value
2022-08-24T00:04:00.033Z,9.70
2022-08-24T00:09:04.826Z,11.30
2022-08-24T00:14:08.314Z,9.50
2022-08-24T00:19:11.614Z,10.30
2022-08-24T00:24:14.879Z,8.40
2022-08-24T00:29:18.852Z,7.40
2022-08-24T00:34:22.061Z,10.20
2022-08-24T00:39:25.069Z,12.20
2022-08-24T00:44:28.074Z,13.10
2022-08-24T00:49:39.686Z,15.10
2022-08-24T00:54:47.624Z,10.50
2022-08-24T00:59:55.649Z,13.50
2022-08-24T01:05:02.017Z,10.60
2022-08-24T01:10:12.296Z,10.50
2022-08-24T01:15:16.655Z,14.30
2022-08-24T01:20:21.582Z,10.10
2022-08-24T01:25:27.145Z,10.70
2022-08-24T01:30:36.700Z,11.70
2022-08-24T01:35:40.159Z,12.50
2022-08-24T01:40:51.117Z,11.80
2022-08-24T01:45:54.329Z,8.30
2022-08-24T01:50:57.437Z,9.30
2022-08-24T01:56:00.453Z,11.40
2022-08-24T02:01:03.757Z,8.60
2022-08-24T02:06:07.254Z,11.50
2022-08-24T02:11:10.386Z,12.80
2022-08-24T02:16:15.001Z,10.30
2022-08-24T02:21:18.142Z,10.80
2022-08-24T02:26:21.969Z,8.90
2022-08-24T02:31:25.536Z,13.20
2022-08-24T02:36:29.005Z,12.60
2022-08-24T02:41:32.416Z,10.50
2022-08-24T02:46:36.596Z,12.00
2022-08-24T02:51:44.773Z,10.30
2022-08-24T02:56:48.931Z,14.60
2022-08-24T03:01:52.349Z,10.70
2022-08-24T03:06:55.335Z,8.80
2022-08-24T03:11:58.444Z,13.20
2022-08-24T03:17:01.600Z,14.10
2022-08-24T03:22:05.215Z,10.80
2022-08-24T03:27:08.331Z,10.30
2022-08-24T03:32:12.119Z,9.40
2022-08-24T03:37:16.497Z,8.10
2022-08-24T03:42:19.450Z,6.30
2022-08-24T03:47:23.121Z,10.50
2022-08-24T03:52:28.242Z,7.30
2022-08-24T03:57:33.083Z,7.50
2022-08-24T04:02:36.754Z,11.50
2022-08-24T04:07:39.812Z,8.80
2022-08-24T04:12:42.816Z,7.90
2022-08-24T04:17:45.824Z,8.20
2022-08-24T04:22:48.825Z,8.30
2022-08-24T04:27:52.140Z,10.00
2022-08-24T04:32:55.558Z,11.00
2022-08-24T04:37:58.565Z,9.40
2022-08-24T04:43:01.973Z,9.60
2022-08-24T04:48:06.239Z,15.30
2022-08-24T04:53:11.379Z,7.40
2022-08-24T04:58:15.534Z,7.50
2022-08-24T05:03:19.310Z,8.00
2022-08-24T05:08:22.336Z,11.50
2022-08-24T05:13:25.444Z,8.50
2022-08-24T05:18:33.699Z,11.50
2022-08-24T05:23:38.101Z,8.80
2022-08-24T05:28:41.222Z,6.50
2022-08-24T05:33:48.847Z,10.40
2022-08-24T05:38:54.510Z,7.50
2022-08-24T05:43:57.957Z,6.40
2022-08-24T05:49:01.747Z,9.50
2022-08-24T05:54:06.462Z,5.80
2022-08-24T05:59:09.814Z,6.20
2022-08-24T06:04:13.435Z,7.40
2022-08-24T06:09:16.851Z,8.80
2022-08-24T06:14:23.875Z,6.50
2022-08-24T06:19:29.720Z,4.80
2022-08-24T06:24:51.369Z,6.90
2022-08-24T06:30:09.833Z,7.50
2022-08-24T06:40:16.097Z,9.00
2022-08-24T06:45:19.364Z,6.40
2022-08-24T06:50:24.468Z,8.30
2022-08-24T06:55:28.009Z,7.00
2022-08-24T07:00:33.605Z,6.30
2022-08-24T07:05:36.617Z,6.70
2022-08-24T07:10:43.001Z,5.50
2022-08-24T07:15:46.099Z,5.70
2022-08-24T07:20:50.495Z,4.50
2022-08-24T07:25:56.109Z,9.40
2022-08-24T07:31:00.236Z,7.60
2022-08-24T07:36:03.666Z,8.10
2022-08-24T07:41:36.467Z,9.10
2022-08-24T07:46:30.993Z,9.30
2022-08-24T07:51:34.617Z,6.30
2022-08-24T07:56:38.020Z,7.10
2022-08-24T08:01:42.492Z,7.60
2022-08-24T08:06:45.712Z,7.00
2022-08-24T08:11:49.540Z,6.80
2022-08-24T08:16:52.597Z,8.90
2022-08-24T08:22:14.345Z,8.90
2022-08-24T08:27:17.705Z,5.80
2022-08-24T08:32:21.588Z,6.90
2022-08-24T08:37:26.187Z,7.40
2022-08-24T08:42:44.745Z,8.80
2022-08-24T08:48:09.000Z,5.40
2022-08-24T08:53:38.572Z,8.80
2022-08-24T08:58:59.410Z,6.90
2022-08-24T09:04:38.454Z,8.40
2022-08-24T09:10:17.908Z,7.70
2022-08-24T09:15:40.232Z,7.80
2022-08-24T09:21:14.574Z,12.40
2022-08-24T09:26:19.171Z,8.10
2022-08-24T09:31:41.685Z,13.00
2022-08-24T09:37:29.241Z,10.00
2022-08-24T09:42:54.358Z,6.40
2022-08-24T09:48:26.549Z,7.90
2022-08-24T09:53:48.195Z,12.40
2022-08-24T09:59:06.971Z,10.60
2022-08-24T10:04:28.711Z,7.80
2022-08-24T10:09:47.650Z,13.30
2022-08-24T10:14:56.644Z,8.60
2022-08-24T10:20:29.673Z,9.10
2022-08-24T10:26:03.503Z,9.70
2022-08-24T10:31:13.084Z,9.80
2022-08-24T10:36:47.073Z,10.40
2022-08-24T10:42:05.443Z,15.40
2022-08-24T10:47:20.832Z,14.70
2022-08-24T10:52:39.005Z,10.70
2022-08-24T10:58:20.819Z,18.10
2022-08-24T11:03:28.276Z,11.90
2022-08-24T11:08:35.540Z,12.60
2022-08-24T11:13:54.251Z,13.30
2022-08-24T11:19:00.697Z,11.30
2022-08-24T11:24:27.668Z,9.20
2022-08-24T11:29:52.400Z,11.60
2022-08-24T11:34:55.904Z,12.30
2022-08-24T11:39:58.948Z,12.90
2022-08-24T11:45:25.261Z,12.20
2022-08-24T11:50:30.214Z,12.60
2022-08-24T11:55:46.815Z,12.50
2022-08-24T12:01:01.312Z,11.40
2022-08-24T12:06:32.265Z,17.60
2022-08-24T12:11:42.041Z,20.40
2022-08-24T12:17:00.920Z,15.90
2022-08-24T12:22:07.817Z,16.30
2022-08-24T12:27:18.503Z,15.50
2022-08-24T12:32:27.347Z,17.50
2022-08-24T12:37:33.237Z,13.20
2022-08-24T12:42:59.064Z,16.10
2022-08-24T12:48:17.576Z,16.20
2022-08-24T12:53:32.629Z,18.10
2022-08-24T12:58:53.904Z,20.50
2022-08-24T13:04:10.284Z,14.70
2022-08-24T13:09:26.286Z,14.90
2022-08-24T13:14:30.525Z,22.00
2022-08-24T13:19:40.504Z,13.80
2022-08-24T13:25:06.234Z,16.90
2022-08-24T13:30:21.843Z,18.50
2022-08-24T13:35:40.100Z,18.30
2022-08-24T13:40:53.631Z,19.10
2022-08-24T13:46:13.305Z,13.00
2022-08-24T13:51:34.891Z,19.40
2022-08-24T13:56:47.528Z,17.70
2022-08-24T14:02:16.238Z,15.10
2022-08-24T14:07:28.173Z,20.50
2022-08-24T14:12:31.256Z,19.60
2022-08-24T14:18:11.542Z,16.60
2022-08-24T14:23:39.639Z,18.10
2022-08-24T14:28:44.323Z,20.40
2022-08-24T14:34:24.921Z,19.40
2022-08-24T14:39:52.573Z,21.20
2022-08-24T14:45:07.742Z,19.50
2022-08-24T14:50:16.279Z,14.90
2022-08-24T14:55:30.046Z,15.20
2022-08-24T15:00:57.725Z,23.80
2022-08-24T15:06:29.307Z,15.90
2022-08-24T15:11:35.926Z,15.20
2022-08-24T15:16:39.010Z,13.50
2022-08-24T15:22:08.744Z,19.50
2022-08-24T15:27:42.868Z,17.00
2022-08-24T15:32:55.811Z,15.40
2022-08-24T15:38:20.449Z,23.50
2022-08-24T15:43:23.536Z,16.30
2022-08-24T15:48:27.307Z,10.20
2022-08-24T15:53:42.760Z,16.20
2022-08-24T15:58:47.433Z,9.70
2022-08-24T16:03:52.341Z,10.10
2022-08-24T16:09:17.243Z,9.30
2022-08-24T16:14:38.912Z,11.50
2022-08-24T16:19:50.044Z,11.30
2022-08-24T16:25:09.541Z,12.10
2022-08-24T16:35:39.068Z,11.00
2022-08-24T16:40:43.820Z,12.40
2022-08-24T16:45:55.059Z,11.60
2022-08-24T16:50:58.708Z,8.00
2022-08-24T16:56:04.352Z,10.50
2022-08-24T17:01:07.548Z,8.20
2022-08-24T17:06:14.960Z,14.20
2022-08-24T17:11:18.271Z,10.60
2022-08-24T17:16:21.846Z,10.70
2022-08-24T17:21:27.023Z,12.30
2022-08-24T17:26:31.441Z,8.60
2022-08-24T17:31:34.520Z,8.20
2022-08-24T17:36:39.261Z,8.50
2022-08-24T17:41:42.337Z,8.70
2022-08-24T17:46:47.897Z,8.20
2022-08-24T17:51:50.894Z,13.00
2022-08-24T17:56:53.914Z,9.60
2022-08-24T18:02:09.608Z,15.00
2022-08-24T18:07:35.888Z,11.60
2022-08-24T18:12:41.552Z,11.00
2022-08-24T18:17:50.176Z,7.20
2022-08-24T18:22:54.449Z,12.70
2022-08-24T18:27:58.849Z,8.60
2022-08-24T18:33:02.151Z,9.20
2022-08-24T18:38:05.261Z,12.80
2022-08-24T18:43:09.130Z,13.70
2022-08-24T18:48:12.091Z,9.90
2022-08-24T18:53:16.123Z,10.40
2022-08-24T18:58:19.129Z,10.10
2022-08-24T19:03:24.094Z,12.50
2022-08-24T19:08:27.089Z,12.20
2022-08-24T19:13:30.097Z,8.30
2022-08-24T19:18:34.947Z,9.00
2022-08-24T19:23:40.574Z,15.20
2022-08-24T19:28:43.617Z,10.70
2022-08-24T19:33:48.914Z,11.60
2022-08-24T19:38:55.920Z,10.00
2022-08-24T19:44:27.313Z,10.50
2022-08-24T19:49:30.976Z,11.60
2022-08-24T19:54:38.388Z,12.40
2022-08-24T19:59:43.846Z,13.80
2022-08-24T20:04:50.046Z,12.30
2022-08-24T20:09:53.150Z,13.90
2022-08-24T20:14:56.895Z,9.40
2022-08-24T20:19:59.974Z,11.20
2022-08-24T20:25:03.645Z,9.40
2022-08-24T20:30:08.141Z,11.10
2022-08-24T20:35:11.535Z,9.60
2022-08-24T20:40:17.281Z,10.40
2022-08-24T20:45:20.545Z,12.40
2022-08-24T20:50:24.800Z,8.60
2022-08-24T20:55:27.980Z,13.00
2022-08-24T21:00:31.557Z,13.50
2022-08-24T21:05:34.473Z,13.80
2022-08-24T21:10:37.614Z,9.10
2022-08-24T21:15:41.728Z,11.00
2022-08-24T21:20:58.218Z,12.50
2022-08-24T21:26:10.736Z,12.00
2022-08-24T21:31:13.727Z,10.20
2022-08-24T21:36:17.020Z,11.20
2022-08-24T21:41:20.346Z,12.70
2022-08-24T21:46:36.376Z,12.90
2022-08-24T21:51:40.274Z,13.80
2022-08-24T21:56:43.379Z,9.20
2022-08-24T22:01:46.430Z,10.80
2022-08-24T22:06:50.116Z,10.80
2022-08-24T22:11:54.118Z,13.30
2022-08-24T22:16:57.150Z,16.70
2022-08-24T22:22:00.254Z,13.10
2022-08-24T22:27:04.186Z,11.10
2022-08-24T22:32:07.393Z,15.80
2022-08-24T22:37:10.403Z,11.60
2022-08-24T22:42:13.405Z,11.80
2022-08-24T22:47:16.519Z,14.80
2022-08-24T22:52:19.727Z,15.40
2022-08-24T22:57:22.835Z,13.00
2022-08-24T23:02:26.047Z,13.30
2022-08-24T23:07:29.056Z,13.30
2022-08-24T23:12:32.411Z,11.20
2022-08-24T23:17:35.380Z,13.30
2022-08-24T23:22:41.072Z,15.00
2022-08-24T23:27:46.597Z,12.40
2022-08-24T23:32:52.379Z,12.00
2022-08-24T23:37:55.387Z,10.80
2022-08-24T23:42:58.599Z,11.30
2022-08-24T23:48:02.614Z,12.50
2022-08-24T23:53:05.634Z,12.60
2022-08-24T23:58:08.641Z,14.50
